KNEW/NEW METAR and TAF weather

Enter ICAO airport designator
Station Type Date Time Source
KNEW METAR 2020/07/10 21:53 UTC NOAA

KNEW 102153Z AUTO 29010KT 10SM CLR 34/25 A3000 RMK AO2 SLP151 T03390250


Station Type Date Time Source
KNEW Decoded METAR 2020/07/10 21:53 UTC NOAA

NEW ORLEANS LAKEFRONT AIRPORT , LA, United States (KNEW) 30-03N 90-02W 3M
Jul 10, 2020 - 05:53 PM EDT / 2020.07.10 2153 UTC
Wind: from the WNW (290 degrees) at 12 MPH (10 KT):0
Visibility: 10 mile(s):0
Sky conditions: clear
Temperature: 93.0 F (33.9 C)
Heat index: 106.7 F (41.5 C):1
Dew Point: 77.0 F (25.0 C)
Relative Humidity: 59%
Pressure (altimeter): 30 in. Hg (1015 hPa)
ob: KNEW 102153Z AUTO 29010KT 10SM CLR 34/25 A3000 RMK AO2 SLP151 T03390250
cycle: 22

Station Type Date Time Source
KNEW TAF 2020/07/10 18:48 UTC NOAA

TAF KNEW 101742Z 1018/1118 30010KT P6SM FEW030 SCT250

Example: see airport list